Terminal Aerodrome Forecast
Issued by NWS Tallahassee, FL

Home | Current Version | Previous Version | Text Only | Print | Product List | Glossary On
Versions: 1 2 3 4 5 6 7 8 9 10 11 12 13 14 15 16
326
FTUS42 KTAE 270742 AAA
TAFTLH
TAF AMD
KTLH 270742Z 2708/2806 00000KT 1/4SM FG VV001
      TEMPO 2708/2712 1SM BR SCT001
     FM271200 00000KT 1/2SM FG BKN001
     FM271500 18007KT P6SM SCT050 BKN250=

USA.gov is the U.S. government's official web portal to all federal, state and local government web resources and services.